createdAt,value
2019-01-02T00:00:36.697Z,5.30
2019-01-02T00:04:02.226Z,5.47
2019-01-02T00:07:27.775Z,5.53
2019-01-02T00:10:53.324Z,5.57
2019-01-02T00:14:19.011Z,6.57
2019-01-02T00:17:44.913Z,6.50
2019-01-02T00:21:10.823Z,4.70
2019-01-02T00:24:36.344Z,5.47
2019-01-02T00:28:02.488Z,6.80
2019-01-02T00:31:28.096Z,4.67
2019-01-02T00:34:53.663Z,5.43
2019-01-02T00:38:19.517Z,5.07
2019-01-02T00:41:45.195Z,4.97
2019-01-02T00:45:10.963Z,6.07
2019-01-02T00:48:36.877Z,4.83
2019-01-02T00:52:02.422Z,4.20
2019-01-02T00:55:28.036Z,5.70
2019-01-02T00:58:53.875Z,5.53
2019-01-02T01:02:19.452Z,5.60
2019-01-02T01:05:44.979Z,7.03
2019-01-02T01:09:10.513Z,4.67
2019-01-02T01:12:36.077Z,5.03
2019-01-02T01:16:01.605Z,5.40
2019-01-02T01:19:27.454Z,5.07
2019-01-02T01:22:53.009Z,4.80
2019-01-02T01:26:18.960Z,6.33
2019-01-02T01:29:44.879Z,5.13
2019-01-02T01:33:10.439Z,5.17
2019-01-02T01:36:35.974Z,4.43
2019-01-02T01:40:01.895Z,4.03
2019-01-02T01:43:28.140Z,4.93
2019-01-02T01:46:53.661Z,5.57
2019-01-02T01:50:19.496Z,4.63
2019-01-02T01:53:45.050Z,5.43
2019-01-02T01:57:10.904Z,4.90
2019-01-02T02:00:37.028Z,5.13
2019-01-02T02:04:02.555Z,5.33
2019-01-02T02:07:28.404Z,4.77
2019-01-02T02:10:54.221Z,5.23
2019-01-02T02:14:19.799Z,4.50
2019-01-02T02:17:45.412Z,5.20
2019-01-02T02:21:11.227Z,3.63
2019-01-02T02:24:36.794Z,5.87
2019-01-02T02:28:02.897Z,5.90
2019-01-02T02:31:28.418Z,5.53
2019-01-02T02:34:54.291Z,5.73
2019-01-02T02:38:19.853Z,4.60
2019-01-02T02:41:45.845Z,4.87
2019-01-02T02:45:12.775Z,5.20
2019-01-02T02:48:39.015Z,6.63
2019-01-02T02:52:04.903Z,4.60
2019-01-02T02:55:30.470Z,4.77
2019-01-02T02:58:56.798Z,4.80
2019-01-02T03:02:22.751Z,4.63
2019-01-02T03:05:48.308Z,5.40
2019-01-02T03:09:13.862Z,5.73
2019-01-02T03:12:39.408Z,5.70
2019-01-02T03:16:05.231Z,4.83
2019-01-02T03:19:31.381Z,4.67
2019-01-02T03:22:57.362Z,5.60
2019-01-02T03:26:23.469Z,5.63
2019-01-02T03:29:49.049Z,5.33
2019-01-02T03:33:14.607Z,5.00
2019-01-02T03:36:40.127Z,5.20
2019-01-02T03:40:06.394Z,6.00
2019-01-02T03:43:31.920Z,6.30
2019-01-02T03:46:57.492Z,5.10
2019-01-02T03:50:23.089Z,6.67
2019-01-02T03:53:48.648Z,5.00
2019-01-02T03:57:14.231Z,5.20
2019-01-02T04:00:39.792Z,6.10
2019-01-02T04:04:05.414Z,6.17
2019-01-02T04:07:31.242Z,4.83
2019-01-02T04:10:57.059Z,6.87
2019-01-02T04:14:22.593Z,5.77
2019-01-02T04:17:48.461Z,5.80
2019-01-02T04:21:14.293Z,6.83
2019-01-02T04:24:39.863Z,6.93
2019-01-02T04:28:05.403Z,5.13
2019-01-02T04:31:30.949Z,6.30
2019-01-02T04:34:56.613Z,6.30
2019-01-02T04:38:22.154Z,5.80
2019-01-02T04:41:47.703Z,5.47
2019-01-02T04:45:13.308Z,6.23
2019-01-02T04:48:38.834Z,6.73
2019-01-02T04:52:04.373Z,4.53
2019-01-02T04:55:30.163Z,6.03
2019-01-02T04:58:56.051Z,5.57
2019-01-02T05:02:21.608Z,4.67
2019-01-02T05:05:47.145Z,4.17
2019-01-02T05:09:12.694Z,5.83
2019-01-02T05:12:38.246Z,6.17
2019-01-02T05:16:04.041Z,5.93
2019-01-02T05:19:29.585Z,5.90
2019-01-02T05:22:55.103Z,5.87
2019-01-02T05:26:20.767Z,4.67
2019-01-02T05:29:46.310Z,7.00
2019-01-02T05:33:11.830Z,6.13
2019-01-02T05:36:37.361Z,5.17
2019-01-02T05:40:02.920Z,5.27
2019-01-02T05:43:28.454Z,5.47
2019-01-02T05:46:54.003Z,4.63
2019-01-02T05:50:19.563Z,6.33
2019-01-02T05:53:45.148Z,5.50
2019-01-02T05:57:10.722Z,5.87
2019-01-02T06:00:39.789Z,4.60
2019-01-02T06:04:03.852Z,5.30
2019-01-02T06:07:29.374Z,6.03
2019-01-02T06:10:54.942Z,4.93
2019-01-02T06:14:20.729Z,4.37
2019-01-02T06:17:46.318Z,3.87
2019-01-02T06:21:11.867Z,5.30
2019-01-02T06:24:37.377Z,4.97
2019-01-02T06:28:02.962Z,3.10
2019-01-02T06:31:28.485Z,6.57
2019-01-02T06:34:54.034Z,5.53
2019-01-02T06:38:19.563Z,5.53
2019-01-02T06:41:45.141Z,6.20
2019-01-02T06:45:13.854Z,4.77
2019-01-02T06:48:39.400Z,6.57
2019-01-02T06:52:04.949Z,5.33
2019-01-02T06:55:30.623Z,6.00
2019-01-02T06:58:56.176Z,5.37
2019-01-02T07:02:21.706Z,5.60
2019-01-02T07:05:47.289Z,5.00
2019-01-02T07:09:12.832Z,5.07
2019-01-02T07:12:38.379Z,5.97
2019-01-02T07:16:04.180Z,4.73
2019-01-02T07:19:29.714Z,3.73
2019-01-02T07:22:55.223Z,3.97
2019-01-02T07:26:21.166Z,4.13
2019-01-02T07:29:46.676Z,5.63
2019-01-02T07:33:12.232Z,4.80
2019-01-02T07:37:32.874Z,5.53
2019-01-02T07:41:52.654Z,4.57
2019-01-02T07:46:26.797Z,4.40
2019-01-02T07:51:00.221Z,3.70
2019-01-02T07:55:32.825Z,2.87
2019-01-02T08:00:02.359Z,4.60
2019-01-02T08:04:42.511Z,3.53
2019-01-02T08:09:07.264Z,3.13
2019-01-02T08:13:27.273Z,4.43
2019-01-02T08:17:54.457Z,4.73
2019-01-02T08:22:21.849Z,4.03
2019-01-02T08:26:45.391Z,5.50
2019-01-02T08:31:05.812Z,4.37
2019-01-02T08:36:10.581Z,3.60
2019-01-02T08:40:15.246Z,3.77
2019-01-02T08:44:52.198Z,4.10
2019-01-02T08:49:05.083Z,5.47
2019-01-02T08:53:30.236Z,4.33
2019-01-02T08:58:05.458Z,3.70
2019-01-02T09:02:40.925Z,3.67
2019-01-02T09:07:11.821Z,5.13
2019-01-02T09:11:56.125Z,4.70
2019-01-02T09:16:39.730Z,4.10
2019-01-02T09:20:51.506Z,3.50
2019-01-02T09:25:17.247Z,6.60
2019-01-02T09:29:45.920Z,4.07
2019-01-02T09:34:16.785Z,4.63
2019-01-02T09:38:47.066Z,5.73
2019-01-02T09:43:03.477Z,4.70
2019-01-02T09:47:17.419Z,4.47
2019-01-02T09:51:38.549Z,3.27
2019-01-02T09:55:56.911Z,4.60
2019-01-02T10:00:23.517Z,3.73
2019-01-02T10:04:37.990Z,5.43
2019-01-02T10:09:08.337Z,4.87
2019-01-02T10:13:34.846Z,4.33
2019-01-02T10:18:06.936Z,3.87
2019-01-02T10:22:16.893Z,3.83
2019-01-02T10:26:15.309Z,4.78
2019-01-02T10:30:57.361Z,4.53
2019-01-02T10:35:16.427Z,3.08
2019-01-02T10:39:27.275Z,4.20
2019-01-02T10:43:33.461Z,3.67
2019-01-02T10:47:17.225Z,3.95
2019-01-02T10:51:35.732Z,4.30
2019-01-02T10:56:03.784Z,4.20
2019-01-02T11:00:49.073Z,5.37
2019-01-02T11:04:45.332Z,5.30
2019-01-02T11:09:13.822Z,4.67
2019-01-02T11:13:50.000Z,5.35
2019-01-02T11:18:09.559Z,6.25
2019-01-02T11:22:27.471Z,4.28
2019-01-02T11:27:13.961Z,4.95
2019-01-02T11:31:44.219Z,5.42
2019-01-02T11:36:39.941Z,4.47
2019-01-02T11:40:55.548Z,5.37
2019-01-02T11:45:08.831Z,4.65
2019-01-02T11:48:34.393Z,5.42
2019-01-02T11:51:59.925Z,4.65
2019-01-02T11:55:25.470Z,4.12
2019-01-02T11:58:51.038Z,4.30
2019-01-02T12:02:16.860Z,4.72
2019-01-02T12:05:42.433Z,4.40
2019-01-02T12:09:10.591Z,4.62
2019-01-02T12:12:36.129Z,6.58
2019-01-02T12:16:01.700Z,4.83
2019-01-02T12:19:27.571Z,4.95
2019-01-02T12:22:53.129Z,4.08
2019-01-02T12:26:18.743Z,4.10
2019-01-02T12:29:47.477Z,3.87
2019-01-02T12:33:13.023Z,4.20
2019-01-02T12:36:38.574Z,4.60
2019-01-02T12:40:04.171Z,4.62
2019-01-02T12:43:29.731Z,4.65
2019-01-02T12:46:55.307Z,5.05
2019-01-02T12:50:20.899Z,4.15
2019-01-02T12:53:53.250Z,5.40
2019-01-02T12:57:18.823Z,4.95
2019-01-02T13:00:59.800Z,4.53
2019-01-02T13:05:03.303Z,4.70
2019-01-02T13:09:32.060Z,4.45
2019-01-02T13:13:30.501Z,4.75
2019-01-02T13:21:59.326Z,5.75
2019-01-02T13:26:18.846Z,4.47
2019-01-02T13:30:44.162Z,4.15
2019-01-02T13:35:09.042Z,4.10
2019-01-02T13:38:50.854Z,5.33
2019-01-02T13:43:16.893Z,3.80
2019-01-02T13:47:43.842Z,3.52
2019-01-02T13:51:16.054Z,3.47
2019-01-02T13:54:41.783Z,3.52
2019-01-02T13:58:07.404Z,4.72
2019-01-02T14:01:33.779Z,3.83
2019-01-02T14:04:59.703Z,4.42
2019-01-02T14:08:25.286Z,4.20
2019-01-02T14:11:50.803Z,5.17
2019-01-02T14:15:16.384Z,5.33
2019-01-02T14:18:41.977Z,5.35
2019-01-02T14:22:07.568Z,4.37
2019-01-02T14:25:33.111Z,4.50
2019-01-02T14:28:58.675Z,4.28
2019-01-02T14:32:24.201Z,3.83
2019-01-02T14:35:49.755Z,3.52
2019-01-02T14:39:15.575Z,5.85
2019-01-02T14:42:41.140Z,4.40
2019-01-02T14:46:06.713Z,4.30
2019-01-02T14:49:32.351Z,4.43
2019-01-02T14:52:58.144Z,4.17
2019-01-02T14:56:23.966Z,3.50
2019-01-02T14:59:49.510Z,3.97
2019-01-02T15:03:15.355Z,4.07
2019-01-02T15:06:40.907Z,3.73
2019-01-02T15:10:10.649Z,4.33
2019-01-02T15:13:36.451Z,4.40
2019-01-02T15:17:01.989Z,4.67
2019-01-02T15:20:27.822Z,4.27
2019-01-02T15:23:53.362Z,4.57
2019-01-02T15:27:19.502Z,4.20
2019-01-02T15:30:45.033Z,3.37
2019-01-02T15:34:10.591Z,3.73
2019-01-02T15:37:36.184Z,4.93
2019-01-02T15:41:03.012Z,3.83
2019-01-02T15:44:28.583Z,5.90
2019-01-02T15:47:54.169Z,3.80
2019-01-02T15:51:19.774Z,4.63
2019-01-02T15:54:45.752Z,5.73
2019-01-02T15:58:11.514Z,4.40
2019-01-02T16:01:37.101Z,5.00
2019-01-02T16:05:02.924Z,3.97
2019-01-02T16:08:28.977Z,3.60
2019-01-02T16:11:54.607Z,3.83
2019-01-02T16:15:20.153Z,3.97
2019-01-02T16:18:45.694Z,4.00
2019-01-02T16:22:11.253Z,4.97
2019-01-02T16:25:36.830Z,5.43
2019-01-02T16:29:02.371Z,4.97
2019-01-02T16:32:27.969Z,4.97
2019-01-02T16:35:53.532Z,5.97
2019-01-02T16:39:19.101Z,7.43
2019-01-02T16:42:44.671Z,5.90
2019-01-02T16:46:10.509Z,6.03
2019-01-02T16:49:36.076Z,6.63
2019-01-02T16:53:02.505Z,6.20
2019-01-02T16:56:28.087Z,7.60
2019-01-02T16:59:53.634Z,6.07
2019-01-02T17:03:19.448Z,5.90
2019-01-02T17:06:44.972Z,6.03
2019-01-02T17:10:12.439Z,6.90
2019-01-02T17:13:38.012Z,6.33
2019-01-02T17:17:03.657Z,7.47
2019-01-02T17:20:29.321Z,6.77
2019-01-02T17:23:54.897Z,6.10
2019-01-02T17:27:20.451Z,7.00
2019-01-02T17:30:46.015Z,6.47
2019-01-02T17:34:12.254Z,6.53
2019-01-02T17:37:38.466Z,5.60
2019-01-02T17:41:04.087Z,6.97
2019-01-02T17:44:29.979Z,5.63
2019-01-02T17:47:55.605Z,7.20
2019-01-02T17:51:21.191Z,6.37
2019-01-02T17:54:46.741Z,9.23
2019-01-02T17:58:12.297Z,9.00
2019-01-02T18:01:38.196Z,7.87
2019-01-02T18:05:04.001Z,8.33
2019-01-02T18:08:29.578Z,9.80
2019-01-02T18:11:55.208Z,7.73
2019-01-02T18:15:21.292Z,7.63
2019-01-02T18:18:46.876Z,7.60
2019-01-02T18:22:13.808Z,8.33
2019-01-02T18:25:39.480Z,7.50
2019-01-02T18:29:05.502Z,8.60
2019-01-02T18:32:31.190Z,8.70
2019-01-02T18:35:56.766Z,6.70
2019-01-02T18:39:22.337Z,6.23
2019-01-02T18:42:47.906Z,7.47
2019-01-02T18:46:13.495Z,7.53
2019-01-02T18:49:39.566Z,5.53
2019-01-02T18:53:05.148Z,6.47
2019-01-02T18:56:31.348Z,6.33
2019-01-02T18:59:56.907Z,6.37
2019-01-02T19:03:22.751Z,6.40
2019-01-02T19:06:48.377Z,6.60
2019-01-02T19:10:13.958Z,6.03
2019-01-02T19:13:42.671Z,5.53
2019-01-02T19:17:08.368Z,7.23
2019-01-02T19:20:34.258Z,7.27
2019-01-02T19:23:59.933Z,6.13
2019-01-02T19:27:25.759Z,7.90
2019-01-02T19:30:51.356Z,6.00
2019-01-02T19:34:16.867Z,6.17
2019-01-02T19:37:42.665Z,7.43
2019-01-02T19:41:08.278Z,5.90
2019-01-02T19:44:33.846Z,6.87
2019-01-02T19:47:59.519Z,6.70
2019-01-02T19:51:25.242Z,6.90
2019-01-02T19:54:50.845Z,5.77
2019-01-02T19:58:16.580Z,6.27
2019-01-02T20:01:42.173Z,7.57
2019-01-02T20:05:08.032Z,9.00
2019-01-02T20:08:33.747Z,9.07
2019-01-02T20:11:59.441Z,9.17
2019-01-02T20:15:25.317Z,10.73
2019-01-02T20:18:51.068Z,9.07
2019-01-02T20:22:16.634Z,10.30
2019-01-02T20:25:42.188Z,8.57
2019-01-02T20:29:08.130Z,7.90
2019-01-02T20:32:34.191Z,8.47
2019-01-02T20:35:59.820Z,7.83
2019-01-02T20:39:25.493Z,6.97
2019-01-02T20:42:51.304Z,9.37
2019-01-02T20:46:17.187Z,7.40
2019-01-02T20:49:43.061Z,6.87
2019-01-02T20:53:08.657Z,5.60
2019-01-02T20:56:34.790Z,5.13
2019-01-02T21:00:00.809Z,7.83
2019-01-02T21:03:26.414Z,7.50
2019-01-02T21:06:52.052Z,7.23
2019-01-02T21:10:17.824Z,7.50
2019-01-02T21:13:43.741Z,6.63
2019-01-02T21:17:09.433Z,6.67
2019-01-02T21:20:35.391Z,6.77
2019-01-02T21:24:00.976Z,7.37
2019-01-02T21:27:26.727Z,7.13
2019-01-02T21:30:52.281Z,7.00
2019-01-02T21:34:17.880Z,7.67
2019-01-02T21:37:43.637Z,8.10
2019-01-02T21:41:09.367Z,7.80
2019-01-02T21:44:35.264Z,8.37
2019-01-02T21:48:01.122Z,7.50
2019-01-02T21:51:26.727Z,8.00
2019-01-02T21:54:52.346Z,8.20
2019-01-02T21:58:17.969Z,7.57
2019-01-02T22:01:43.811Z,11.57
2019-01-02T22:05:12.579Z,7.63
2019-01-02T22:12:15.386Z,10.57
2019-01-02T22:15:47.603Z,8.97
2019-01-02T22:19:13.359Z,9.10
2019-01-02T22:22:38.962Z,9.30
2019-01-02T22:26:04.533Z,8.67
2019-01-02T22:29:30.450Z,11.47
2019-01-02T22:32:56.064Z,8.03
2019-01-02T22:36:21.685Z,9.67
2019-01-02T22:39:47.784Z,9.87
2019-01-02T22:43:13.349Z,8.43
2019-01-02T22:46:38.966Z,8.73
2019-01-02T22:50:05.459Z,9.10
2019-01-02T22:53:31.028Z,9.63
2019-01-02T22:56:56.637Z,9.17
2019-01-02T23:00:41.321Z,8.60
2019-01-02T23:04:23.048Z,8.73
2019-01-02T23:08:13.734Z,9.17
2019-01-02T23:12:01.183Z,9.93
2019-01-02T23:15:54.548Z,9.17
2019-01-02T23:19:47.710Z,10.30
2019-01-02T23:23:34.977Z,10.43
2019-01-02T23:27:34.526Z,10.37
2019-01-02T23:31:25.097Z,10.03
2019-01-02T23:35:18.346Z,11.13
2019-01-02T23:39:17.742Z,10.33
2019-01-02T23:43:00.660Z,11.03
2019-01-02T23:46:45.138Z,10.53
2019-01-02T23:50:35.085Z,9.83
2019-01-02T23:54:19.494Z,11.73
2019-01-02T23:58:07.216Z,9.23
